Terminal Aerodrome Forecast
Issued by NWS

Home | Current Version | Previous Version | Text Only | Print | Product List | Glossary On
Versions: 1 2 3 4 5 6 7 8 9 10 11 12 13 14 15 16 17 18
000
FTUS46 KSGX 192300
TAFCRQ
TAF
KCRQ 192329Z 2000/2024 27006KT P6SM SCT030 BKN200
     FM200200 VRB04KT P6SM SCT025 BKN200
      TEMPO 2005/2009 BKN020
     FM201900 25007KT P6SM SCT025 SCT200=

USA.gov is the U.S. government's official web portal to all federal, state and local government web resources and services.